Flight Track Log - Related Links

Times and Time Zones

All times are in EDT time to prevent confusion due to time zone crossing. See the UAL395 flight status page for this flight to view local times or setup timezone preferences in your user account.

Time Position Orientation Groundspeed Altitude Reporting Facility
EDT Latitude Longitude Course Direction KTS MPH feet Rate Location/Type
Tue 03:23:35 PM 40.6667 -74.1833 210° Southwest 160 184 1,100  Level New York TRACON
Tue 03:24:35 PM 40.6167 -74.2000 194° South 215 247 2,400 1,950 Climbing New York TRACON
Tue 03:25:35 PM 40.5667 -74.2667 225° Southwest 269 310 5,000 1,667 Climbing New York TRACON
Tue 03:26:00 PM 40.3330 -74.3458 201° Southwest  Level Estimated
Tue 03:26:41 PM 40.4833 -74.2500 171° South 270 311 5,900  Level New York TRACON
Tue 03:27:00 PM 40.2131 -74.4044 207° Southwest  Level Estimated
Tue 03:28:00 PM 40.0932 -74.4629 210° Southwest  Level Estimated
Tue 03:28:15 PM 40.3786 -74.1931 157° South 274 315 6,000  Level New York Center
Tue 03:29:15 PM 40.2981 -74.1672 166° South 274 315 9,000 2,450 Climbing New York Center
Tue 03:30:15 PM 40.2244 -74.1908 194° South 285 328 10,900 1,950 Climbing New York Center
Tue 03:31:15 PM 40.1319 -74.2161 192° South 323 372 12,900 2,192 Climbing New York Center
Tue 03:33:02 PM 39.9819 -74.3458 214° Southwest 341 392 17,000 2,109 Climbing Washington Center
Tue 03:34:00 PM 39.9017 -74.4367 221° Southwest 364 419 18,700 1,729 Climbing Washington Center
Tue 03:35:00 PM 39.8172 -74.5325 221° Southwest 388 447 20,400 1,686 Climbing Washington Center
Tue 03:36:01 PM 39.7325 -74.6283 221° Southwest 401 461 22,100 1,574 Climbing Washington Center
Tue 03:37:02 PM 39.6417 -74.7292 221° Southwest 418 481 23,600 1,462 Climbing Washington Center
Tue 03:38:00 PM 39.5633 -74.8458 229° Southwest 423 487 25,000 1,424 Climbing Washington Center
Tue 03:39:00 PM 39.4911 -74.9731 234° Southwest 430 495 26,400 1,279 Climbing Washington Center
Tue 03:40:02 PM 39.4019 -75.0919 226° Southwest 451 519 27,600 1,190 Climbing Washington Center
Tue 03:41:01 PM 39.2939 -75.1786 212° Southwest 451 519 28,800 1,008 Climbing Washington Center
Tue 03:42:01 PM 39.1858 -75.2247 198° South 447 514 29,600 850 Climbing Washington Center
Tue 03:43:01 PM 39.0544 -75.2628 193° South 466 536 30,500 992 Climbing Washington Center
Tue 03:44:02 PM 38.9233 -75.3114 196° South 484 557 31,600 744 Climbing Washington Center
Tue 03:45:02 PM 38.7922 -75.3547 194° South 484 557 32,000 133 Climbing Washington Center
Tue 03:47:02 PM 38.5317 -75.4483 196° South 489 563 32,000 333 Level Washington Center
Tue 03:48:02 PM 38.4025 -75.4936 195° South 494 568 33,000 1,373 Climbing Washington Center
Tue 03:49:00 PM 38.2692 -75.5758 206° Southwest 489 563 34,700 1,261 Climbing Washington Center
Tue 03:50:01 PM 38.1669 -75.6736 217° Southwest 470 541 35,500 639 Climbing Washington Center
Tue 03:51:02 PM 38.0644 -75.7711 217° Southwest 476 548 36,000 248 Climbing Washington Center
Tue 03:52:02 PM 37.9642 -75.8658 217° Southwest 470 541 36,000  Level Washington Center
Tue 03:53:00 PM 37.8639 -75.9600 217° Southwest 459 528 36,000  Level Washington Center
Tue 03:54:00 PM 37.7844 -76.0358 217° Southwest 454 522 36,000 -50 Level Washington Center
Tue 03:55:01 PM 37.6756 -76.1453 219° Southwest 454 522 35,900  Descending Washington Center
Tue 03:56:01 PM 37.5644 -76.2389 214° Southwest 454 522 36,000 99 Climbing Washington Center
Tue 03:57:02 PM 37.4617 -76.3322 216° Southwest 454 522 36,100  Climbing Washington Center
Tue 03:58:00 PM 37.3611 -76.4253 216° Southwest 454 522 36,000 -50 Descending Washington Center
Tue 03:59:01 PM 37.2561 -76.5131 214° Southwest 454 522 36,000  Level Washington Center
Tue 04:00:01 PM 37.1389 -76.5819 205° Southwest 459 528 36,000  Level Washington Center
Tue 04:01:02 PM 37.0192 -76.6481 204° Southwest 465 535 36,000  Level Washington Center
Tue 04:02:02 PM 36.8978 -76.7164 204° Southwest 471 542 36,000  Level Washington Center
Tue 04:03:00 PM 36.7781 -76.7847 205° Southwest 471 542 36,000  Level Washington Center
Tue 04:04:01 PM 36.6564 -76.8528 204° Southwest 476 548 36,000  Level Washington Center
Tue 04:05:01 PM 36.5367 -76.9233 205° Southwest 476 548 36,000  Level Washington Center
Tue 04:06:02 PM 36.4169 -76.9883 204° Southwest 481 554 36,000  Level Washington Center
Tue 04:07:02 PM 36.2931 -77.0558 204° Southwest 481 554 36,000 -51 Level Washington Center
Tue 04:08:00 PM 36.1733 -77.1231 204° Southwest 481 554 35,900  Descending Washington Center
Tue 04:09:00 PM 36.0706 -77.1800 204° Southwest 465 535 36,000 50 Climbing Washington Center
Tue 04:10:01 PM 35.9486 -77.2444 203° Southwest 465 535 36,000  Level Washington Center
Tue 04:11:00 PM 35.8267 -77.3108 204° Southwest 470 541 36,000  Level Washington Center
Tue 04:12:02 PM 35.7003 -77.3800 204° Southwest 481 554 36,000  Level Washington Center
Tue 04:13:02 PM 35.5719 -77.4486 204° Southwest 481 554 36,000  Level Washington Center
Tue 04:14:00 PM 35.4500 -77.5169 205° Southwest 481 554 36,000  Level Washington Center
Tue 04:15:01 PM 35.3339 -77.5958 209° Southwest 481 554 36,000  Level Washington Center
Tue 04:16:02 PM 35.2364 -77.6925 219° Southwest 476 548 36,000  Level Washington Center
Tue 04:17:00 PM 35.1406 -77.7917 220° Southwest 465 535 36,000  Level Washington Center
Tue 04:18:01 PM 35.0447 -77.8931 221° Southwest 465 535 36,000  Level Washington Center
Tue 04:19:02 PM 34.9469 -77.9942 220° Southwest 465 535 36,000  Level Washington Center
Tue 04:20:02 PM 34.8508 -78.0950 221° Southwest 465 535 36,000  Level Washington Center
Tue 04:21:00 PM 34.7547 -78.2008 222° Southwest 465 535 36,000  Level Washington Center
Tue 04:22:01 PM 34.6544 -78.3036 220° Southwest 470 541 36,000 -27 Level Washington Center
Tue 04:24:41 PM 34.3942 -78.5647 220° Southwest 469 540 35,900 -27 Descending Jacksonville Center
Tue 04:25:41 PM 34.2933 -78.6653 219° Southwest 469 540 35,900  Level Jacksonville Center
Tue 04:26:41 PM 34.1925 -78.7656 219° Southwest 474 545 35,900  Level Jacksonville Center
Tue 04:27:41 PM 34.0956 -78.8628 220° Southwest 474 545 35,900 50 Level Jacksonville Center
Tue 04:28:41 PM 33.9922 -78.9628 219° Southwest 474 545 36,000 50 Climbing Jacksonville Center
Tue 04:29:41 PM 33.8931 -79.0597 219° Southwest 474 545 36,000 -50 Level Jacksonville Center
Tue 04:30:41 PM 33.7939 -79.1617 221° Southwest 474 545 35,900 -50 Descending Jacksonville Center
Tue 04:31:41 PM 33.6903 -79.2633 219° Southwest 467 537 35,900 50 Level Jacksonville Center
Tue 04:32:41 PM 33.5928 -79.3594 219° Southwest 460 529 36,000  Climbing Jacksonville Center
Tue 04:33:41 PM 33.4911 -79.4558 218° Southwest 460 529 35,900  Descending Jacksonville Center
Tue 04:34:41 PM 33.3917 -79.5542 220° Southwest 460 529 36,000 50 Climbing Jacksonville Center
Tue 04:35:41 PM 33.2939 -79.6497 219° Southwest 460 529 36,000 -50 Level Jacksonville Center
Tue 04:36:41 PM 33.1961 -79.7450 219° Southwest 460 529 35,900 -50 Descending Jacksonville Center
Tue 04:37:41 PM 33.0942 -79.8403 218° Southwest 460 529 35,900 50 Level Jacksonville Center
Tue 04:38:41 PM 32.9961 -79.9353 219° Southwest 460 529 36,000 50 Climbing Jacksonville Center
Tue 04:39:41 PM 32.8939 -80.0303 218° Southwest 465 535 36,000 -50 Level Jacksonville Center
Tue 04:40:41 PM 32.7833 -80.1153 213° Southwest 470 541 35,900  Descending Jacksonville Center
Tue 04:41:41 PM 32.6744 -80.1975 212° Southwest 475 547 36,000  Climbing Jacksonville Center
Tue 04:42:41 PM 32.5881 -80.2642 213° Southwest 475 547 35,900  Descending Jacksonville Center
Tue 04:43:41 PM 32.4689 -80.3514 212° Southwest 470 541 36,000 50 Climbing Jacksonville Center
Tue 04:44:41 PM 32.3578 -80.4333 212° Southwest 470 541 36,000  Level Jacksonville Center
Tue 04:45:41 PM 32.2486 -80.5122 211° Southwest 470 541 36,000  Level Jacksonville Center
Tue 04:46:41 PM 32.1372 -80.5936 212° Southwest 470 541 36,000  Level Jacksonville Center
Tue 04:47:41 PM 32.0200 -80.6800 212° Southwest 463 533 36,000  Level Jacksonville Center
Tue 04:48:41 PM 31.8997 -80.7392 203° Southwest 468 539 36,000  Level Jacksonville Center
Tue 04:49:41 PM 31.7814 -80.7786 196° South 481 554 36,000  Level Jacksonville Center
Tue 04:50:41 PM 31.6403 -80.8233 195° South 476 548 36,000  Level Jacksonville Center
Tue 04:51:41 PM 31.5114 -80.8675 196° South 480 552 36,000  Level Jacksonville Center
Tue 04:52:41 PM 31.3972 -80.9042 195° South 474 545 36,000  Level Jacksonville Center
Tue 04:53:41 PM 31.2561 -80.9533 197° South 474 545 36,000  Level Jacksonville Center
Tue 04:54:41 PM 31.1250 -80.9947 195° South 480 552 36,000  Level Jacksonville Center
Tue 04:55:41 PM 30.9983 -81.0386 197° South 480 552 36,000 -50 Level Jacksonville Center
Tue 04:56:41 PM 30.8675 -81.0822 196° South 480 552 35,900 -50 Descending Jacksonville Center
Tue 04:57:41 PM 30.7386 -81.1208 194° South 480 552 35,900 50 Level Jacksonville Center
Tue 04:58:41 PM 30.6011 -81.1453 189° South 486 559 36,000 50 Climbing Jacksonville Center
Tue 04:59:41 PM 30.4822 -81.1497 182° South 491 565 36,000  Level Jacksonville Center
Tue 05:00:41 PM 30.3422 -81.1453 178° South 488 562 36,000  Level Jacksonville Center
Tue 05:01:41 PM 30.2064 -81.1403 178° South 494 568 36,000  Level Jacksonville Center
Tue 05:02:41 PM 30.0722 -81.1019 166° South 494 568 36,000 -50 Level Jacksonville Center
Tue 05:03:41 PM 29.9442 -81.0397 157° South 489 563 35,900 -34 Descending Jacksonville Center
Tue 05:05:37 PM 29.7033 -80.9211 157° South 503 579 35,900  Level Miami Center
Tue 05:06:37 PM 29.5653 -80.8564 158° South 503 579 35,900  Level Miami Center
Tue 05:07:37 PM 29.4625 -80.8050 156° South 497 572 35,900 50 Level Miami Center
Tue 05:08:37 PM 29.3244 -80.7453 159° South 490 564 36,000 50 Climbing Miami Center
Tue 05:09:37 PM 29.1989 -80.6814 156° South 490 564 36,000  Level Miami Center
Tue 05:10:37 PM 29.0714 -80.6175 156° South 490 564 36,000  Level Miami Center
Tue 05:11:37 PM 28.9456 -80.5611 159° South 490 564 36,000  Level Miami Center
Tue 05:12:37 PM 28.8097 -80.4878 155° Southeast 490 564 36,000  Level Miami Center
Tue 05:13:37 PM 28.6964 -80.4369 159° South 495 570 36,000  Level Miami Center
Tue 05:14:37 PM 28.5561 -80.3661 156° South 495 570 36,000  Level Miami Center
Tue 05:15:37 PM 28.4303 -80.3081 158° South 488 562 36,000  Level Miami Center
Tue 05:16:49 PM 28.2900 -80.2400 157° South 493 567 36,000 -45 Level Miami Center
Tue 05:17:49 PM 28.1619 -80.1797 157° South 493 567 35,900 -550 Descending Miami Center
Tue 05:18:49 PM 28.0258 -80.1122 156° South 493 567 34,900 -950 Descending Miami Center
Tue 05:19:49 PM 27.9019 -80.0544 158° South 493 567 34,000 -1,350 Descending Miami Center
Tue 05:20:49 PM 27.7739 -79.9947 158° South 498 573 32,200 -2,100 Descending Miami Center
Tue 05:21:49 PM 27.6497 -79.9372 158° South 492 566 29,800 -2,000 Descending Miami Center
Tue 05:22:49 PM 27.5525 -79.8903 157° South 492 566 28,200 -2,100 Descending Miami Center
Tue 05:23:49 PM 27.4119 -79.8233 157° South 470 541 25,600 -2,250 Descending Miami Center
Tue 05:24:49 PM 27.2942 -79.7711 158° South 465 535 23,700 -2,000 Descending Miami Center
Tue 05:25:49 PM 27.1736 -79.7331 164° South 452 520 21,600 -2,050 Descending Miami Center
Tue 05:26:49 PM 27.0678 -79.7025 166° South 445 512 19,600 -2,000 Descending Miami Center
Tue 05:27:49 PM 26.9578 -79.6694 165° South 425 489 17,600 -2,100 Descending Miami Center
Tue 05:28:49 PM 26.8392 -79.6458 170° South 403 464 15,400 -1,900 Descending Miami Center
Tue 05:29:49 PM 26.7486 -79.6856 201° Southwest 379 436 13,800 -1,800 Descending Miami Center
Tue 05:29:59 PM 26.7211 -79.6989 203° Southwest 368 423 13,300 -1,900 Descending Miami Center
Tue 05:30:49 PM 26.6475 -79.7342 203° Southwest 373 429 11,900 -1,770 Descending Miami Center
Tue 05:31:00 PM 26.6264 -79.7431 201° Southwest 348 400 11,500 -1,200 Descending Miami Center
Tue 05:31:49 PM 26.5714 -79.7694 203° Southwest 348 400 10,700 -1,161 Descending Miami Center
Tue 05:32:02 PM 26.5419 -79.7828 202° Southwest 317 365 10,300 -1,900 Descending Miami Center
Tue 05:32:49 PM 26.4850 -79.8092 203° Southwest 317 365 8,800 -1,869 Descending Miami Center
Tue 05:33:03 PM 26.4661 -79.8203 208° Southwest 292 336 8,400 -800 Descending Miami Center
Tue 05:33:49 PM 26.4175 -79.8422 202° Southwest 299 344 8,000 -436 Descending Miami Center
Tue 05:33:58 PM 26.3964 -79.8533 205° Southwest 289 333 8,000  Level Miami Center
Tue 05:34:49 PM 26.3456 -79.8939 216° Southwest 292 336 8,000  Level Miami Center
Tue 05:35:05 PM 26.3261 -79.9142 223° Southwest 288 331 8,000 -800 Level Miami Center
Tue 05:35:49 PM 26.2900 -79.9481 220° Southwest 292 336 7,200 -1,258 Descending Miami Center
Tue 05:36:07 PM 26.2644 -79.9750 223° Southwest 287 330 6,700 -1,200 Descending Miami Center
Tue 05:36:49 PM 26.2325 -80.0044 220° Southwest 292 336 6,000 -689 Descending Miami Center
Tue 05:37:08 PM 26.2069 -80.0292 221° Southwest 269 310 6,000  Level Miami Center
Tue 05:37:49 PM 26.1811 -80.0564 223° Southwest 281 323 6,000  Level Miami Center
Tue 05:38:09 PM 26.1658 -80.0928 245° Southwest 236 272 6,000  Level Miami Center
Tue 05:38:49 PM 26.1586 -80.1250 256° West 248 285 6,000 -98 Level Miami Center
Tue 05:39:10 PM 26.1475 -80.1594 250° West 239 275 5,900 -651 Descending Miami Center
Tue 05:40:12 PM 26.1481 -80.2289 271° West 206 237 5,100 -872 Descending Miami Center
Tue 05:41:07 PM 26.1467 -80.2844 268° West 203 234 4,200 -1,033 Descending Miami Center
Tue 05:42:14 PM 26.1022 -80.3178 214° Southwest 200 230 3,000 -891 Descending Miami Center
Tue 05:43:15 PM 26.0761 -80.2731 123° Southeast 151 174 2,300 -927 Descending Miami Center
Tue 05:44:17 PM 26.0750 -80.2292 92° East 143 165 1,100 -974 Descending Miami Center
Tue 05:45:12 PM 26.0736 -80.1897 92° East 135 155 400 -764 Descending Miami Center

Login

Don't have an account? Register now (free) for customized features, flight alerts, and more!